Airfield :
LOGIN :

Register | Disclaimer

   EN    FR    IT 

 










Legend :    VFR   Marginal VFR   IFR   Intensive IFR   Very Intensive IFR
Visi :
Ceiling :
>= 8 km
>= 3000ft
5 to 8 km
1000 to 3000 ft
1500m to 5 km
500 to 1000 ft
800 to 1500m
200 to 500 ft
< 800m
< 200 ft
Symbols :   Thunderstorms  Fog  Heavy snow  Heavy precipitations  Wind > 20 kt
SIGMETs :     Misc.  Thunderstorms  Icing  Turbulence  Mountain Waves  Volcanic Ashes







- Airport Elevation : 1416 ft
- IATA code : ZRH


LSZH - Zurich

CURRENT METAR :
  • 221150Z 04010KT 360V070 7000 FEW016 BKN020 M02/M07 Q1012 R88/19//// TEMPO 4000 -SN

EXPIRED METARs :
  • 221120Z 03010KT 360V060 5000 -SN FEW016 BKN019 M03/M07 Q1012 R88/19 TEMPO 4000
  • 221050Z 04011KT 5000 -SN FEW016 BKN019 M02/M07 Q1012 R88/19 TEMPO 4000
  • 221020Z 04013KT 5000 -SN FEW016 BKN019 M02/M07 Q1012 R88/19//// TEMPO 4500
  • 220950Z 04011KT 010V070 5000 -SN FEW016 BKN018 M03/M07 Q1012 R88/19//// TEMPO 4500
  • 220920Z 05013KT 010V090 5000 -SN FEW016 BKN018 M03/M07 Q1012 R88/19//// TEMPO 4500

TAF TAF LSZH
Valid from the 22 at 12:00 until the 23 at 18:00 UTC


221125Z 2212/2318 04010KT 7000 FEW015 BKN020 TXM01/2215Z TNM03/2306Z TXM00/2315Z
TEMPO 2212/2312 4000 -SN
PROB40
TEMPO 2302/2310 4000 BR BKN012
ATIS : +41 43 816 2295 (DEP) +41 43 816 2294 (ARR)
No reported NOTAMs for that airfield.



MET'MAP, your aeronautical weather chart ! - Copyright ORBIFLY December 2007 - Disclaimer

ORBIFLY MET'MAP TEAM :

Programming & Development : Alexandra Zaïnal
Concept & Development : Baudouin d'Aumeries
Co-Development & Prog : Marc-Olivier Méhu
Technical & hardware support : Manuel Goepfert

Contact : metmap@orbifly.com




SOURCES & CREDITS :

   NOAA